ADDS METAR Data INFO
IDs: Format: Raw Decoded Include TAF

Data at: 0859 UTC 20 Oct 2017

PAJN 200853Z 10013KT 10SM -RA SCT005 BKN030 OVC065 06/06 A2915 RMK AO2 SLP870 RAB34 P0000 60000 T00560056 400560006 51009
PAJN 200753Z 09009KT 10SM FEW007 BKN030 OVC046 05/05 A2914 RMK AO2 RAB0655E17 SLP867 P0000 T00500050
PAJN 200653Z 07008KT 10SM FEW005 BKN045 OVC070 05/04 A2913 RMK AO2 SLP865 T00500044
PAJN 200642Z 10010KT 10SM FEW005 BKN045 OVC070 05/04 A2913 RMK AO2 T00500044
PAJN 200600Z 08007KT 10SM FEW005 BKN022 OVC033 04/04 A2912 RMK AO2 T00440044
PAJN 200553Z 08006KT 10SM FEW008 SCT027 OVC041 04/04 A2912 RMK AO2 RAE48 SLP861 P0001 60001 T00440044 10050 20039 52012
PAJN 200500Z 09004KT 10SM -RA SCT007 BKN050 OVC080 04/04 A2911 RMK AO2 P0001 T00390039
PAJN 200453Z 08003KT 10SM -RA BKN007 BKN034 OVC080 04/04 A2911 RMK AO2 RAB04 SLP857 P0000 T00390039
PAJN 200408Z 00000KT 10SM -RA BKN009 BKN055 OVC070 04/04 A2910 RMK AO2 RAB04 P0000 T00390039
PAJN 200353Z 00000KT 10SM FEW007 BKN070 OVC080 04/04 A2910 RMK AO2 SLP854 T00390039
PAJN 200304Z 08004KT 10SM FEW007 BKN033 OVC060 04/04 A2909 RMK AO2 T00390039
PAJN 200253Z 05003KT 10SM FEW007 BKN026 OVC036 04/04 A2909 RMK AO2 RAE26 SLP849 P0000 60000 T00440044 51012
PAJN 200153Z 00000KT 10SM -RA FEW007 BKN030 OVC036 04/04 A2908 RMK AO2 RAE00B31 SLP847 P0000 T00440044
PAJN 200053Z 00000KT 10SM -RA FEW007 SCT033 OVC041 04/04 A2906 RMK AO2 SLP841 P0000 T00440039
PAJN 192353Z 11003KT 8SM -RA FEW007 BKN031 OVC040 05/04 A2905 RMK AO2 SLP838 P0003 60026 T00500039 10050 20033 51013
PAJN 192330Z 00000KT 8SM -RA FEW007 BKN031 OVC040 05/04 A2905 RMK AO2 P0002 T00500044
PAJN 192253Z 00000KT 8SM -RA FEW013 BKN031 OVC040 04/04 A2904 RMK AO2 SLP834 P0003 T00440039
PAJN 192153Z 00000KT 6SM -RA BR FEW006 BKN034 OVC042 05/04 A2903 RMK AO2 SLP829 P0005 T00500039
PAJN 192053Z 00000KT 6SM -RA BR FEW004 BKN036 OVC043 04/04 A2901 RMK AO2 SLP824 P0004 60015 T00440039 51015
PAJN 192019Z 00000KT 6SM -RA BR FEW003 BKN031 OVC040 04/04 A2901 RMK AO2 P0002 T00440044
PAJN 191953Z 00000KT 5SM -RA BR FEW003 BKN025 OVC034 04/04 A2900 RMK AO2 SLP821 P0008 T00390039
PAJN 191949Z 00000KT 5SM -RA BR FEW004 BKN025 OVC034 04/04 A2900 RMK AO2 P0008
PAJN 191853Z 00000KT 7SM -RA BKN035 OVC044 04/04 A2898 RMK AO2 SLP815 P0003 T00390039
PAJN 191753Z 00000KT 8SM -RA BKN038 OVC050 03/03 A2897 RMK AO2 SLP809 P0002 60003 T00330033 10033 20006 51010
PAJN 191653Z 00000KT 6SM -RA BR FEW027 BKN034 OVC055 03/03 A2896 RMK AO2 RAB06 SLP807 P0001 T00280028
PAJN 191553Z 00000KT 10SM BKN060 OVC085 02/02 A2895 RMK AO2 SLP802 T00220022
PAJN 191453Z 28003KT 10SM FEW004 BKN070 OVC090 02/02 A2894 RMK AO2 SLP799 BINOVC T00220022 53006
PAJN 191353Z 00000KT 10SM FEW003 BKN080 OVC120 02/02 A2893 RMK AO2 SLP797 OCNL BINOVC T00220022
PAJN 191253Z 07003KT 10SM FEW002 BKN080 01/01 A2892 RMK AO2 SLP794 T00110011
PAJN 191153Z 00000KT 10SM FEW002 SCT085 02/02 A2892 RMK AO2 SLP793 70001 T00170017 10033 20006 55000
PAJN 191053Z 00000KT 10SM FEW002 SCT080 02/02 A2891 RMK AO2 SLP791 T00170017
PAJN 190953Z 11003KT 10SM FEW002 SCT080 02/02 A2891 RMK AO2 SLP791 T00170017
PAJN 190853Z 00000KT 10SM FEW002 BKN080 02/02 A2892 RMK SLP793 T00220022 400780017 56010 VIA AUTODIAL
PAJN 190753Z 00000KT 10SM BKN080 02/02 A2892 RMK AO2 SLP795 T00170017
PAJN 190653Z 30004KT 10SM BKN080 03/03 A2894 RMK AO2 SLP800 T00280028
PAJN 190553Z 00000KT 10SM BKN075 02/02 A2895 RMK AO2 SLP804 T00220022 10061 20022 55000
PAJN 190453Z 00000KT 10SM BKN070 OVC085 04/03 A2895 RMK AO2 SLP803 T00390033
PAJN 190353Z 00000KT 10SM FEW060 BKN080 03/03 A2895 RMK AO2 SLP803 T00330033
PAJN 190253Z 00000KT 10SM SCT040 BKN055 04/04 A2895 RMK AO2 SLP804 T00440044 58004
PAJN 190153Z 14003KT 10SM FEW015 BKN041 BKN065 06/04 A2895 RMK AO2 SLP805 T00560044
PAJN 190053Z 26005KT 10SM FEW014 BKN041 OVC065 06/04 A2896 RMK AO2 SLP807 T00560044
PAJN 182353Z 00000KT 10SM FEW012 BKN042 OVC070 06/04 A2896 RMK AO2 RAE31 SLP807 P0000 60001 T00610044 10067 20056 58012
PAJN 182253Z 25007KT 10SM -RA FEW012 BKN046 OVC070 06/04 A2898 RMK AO2 RAB53 SLP814 PCPN VRY LGT P0000 T00560044
PAJN 182153Z 02003KT 10SM FEW011 BKN048 OVC070 07/03 A2899 RMK AO2 RAE53 SLP816 P0000 T00670033